createdAt,value
2024-02-26T00:02:01.739Z,69.00
2024-02-26T00:05:03.540Z,69.10
2024-02-26T00:08:06.021Z,68.76
2024-02-26T00:11:07.884Z,68.96
2024-02-26T00:14:09.617Z,69.13
2024-02-26T00:17:11.208Z,69.05
2024-02-26T00:20:12.853Z,69.16
2024-02-26T00:23:16.586Z,69.25
2024-02-26T00:26:18.555Z,69.23
2024-02-26T00:29:20.233Z,69.26
2024-02-26T00:32:22.077Z,69.05
2024-02-26T00:35:23.673Z,69.09
2024-02-26T00:38:25.213Z,69.42
2024-02-26T00:41:27.150Z,69.54
2024-02-26T00:44:28.799Z,69.44
2024-02-26T00:47:30.480Z,69.54
2024-02-26T00:50:32.965Z,69.58
2024-02-26T00:53:34.747Z,69.75
2024-02-26T00:56:36.797Z,69.57
2024-02-26T00:59:38.469Z,69.67
2024-02-26T01:02:40.222Z,69.53
2024-02-26T01:05:42.075Z,69.71
2024-02-26T01:08:43.985Z,69.74
2024-02-26T01:11:45.679Z,69.81
2024-02-26T01:14:47.350Z,69.95
2024-02-26T01:17:49.048Z,70.00
2024-02-26T01:20:51.529Z,70.07
2024-02-26T01:23:53.293Z,70.10
2024-02-26T01:26:55.310Z,70.18
2024-02-26T01:29:57.098Z,70.17
2024-02-26T01:32:58.919Z,70.31
2024-02-26T01:36:00.788Z,70.28
2024-02-26T01:39:02.468Z,70.36
2024-02-26T01:42:04.644Z,70.21
2024-02-26T01:45:06.728Z,70.18
2024-02-26T01:48:08.650Z,70.50
2024-02-26T01:51:11.297Z,70.43
2024-02-26T01:54:13.011Z,70.30
2024-02-26T01:57:15.217Z,70.27
2024-02-26T02:00:17.852Z,70.39
2024-02-26T02:03:19.696Z,70.25
2024-02-26T02:06:21.601Z,70.29
2024-02-26T02:09:23.376Z,70.42
2024-02-26T02:12:25.636Z,70.34
2024-02-26T02:15:27.325Z,70.53
2024-02-26T02:18:29.378Z,70.55
2024-02-26T02:21:31.083Z,70.57
2024-02-26T02:24:32.630Z,70.48
2024-02-26T02:27:34.430Z,70.44
2024-02-26T02:30:36.077Z,70.60
2024-02-26T02:33:37.760Z,70.58
2024-02-26T02:36:55.087Z,70.79
2024-02-26T02:39:56.727Z,71.10
2024-02-26T02:42:59.103Z,71.24
2024-02-26T02:46:00.678Z,71.32
2024-02-26T02:49:02.685Z,71.39
2024-02-26T02:52:04.675Z,71.39
2024-02-26T02:55:06.548Z,71.35
2024-02-26T02:58:08.445Z,71.21
2024-02-26T03:01:10.193Z,71.08
2024-02-26T03:04:11.892Z,71.37
2024-02-26T03:07:13.500Z,71.34
2024-02-26T03:10:15.362Z,71.50
2024-02-26T03:13:17.314Z,71.32
2024-02-26T03:16:19.046Z,71.31
2024-02-26T03:19:20.725Z,71.41
2024-02-26T03:22:22.410Z,71.64
2024-02-26T03:25:23.947Z,71.46
2024-02-26T03:28:25.686Z,71.25
2024-02-26T03:31:27.171Z,71.38
2024-02-26T03:34:29.798Z,71.79
2024-02-26T03:37:31.634Z,71.73
2024-02-26T03:40:33.169Z,71.98
2024-02-26T03:43:35.119Z,72.12
2024-02-26T03:46:36.637Z,72.03
2024-02-26T03:49:38.409Z,71.94
2024-02-26T03:52:40.492Z,71.77
2024-02-26T03:55:42.060Z,71.87
2024-02-26T03:58:43.888Z,71.90
2024-02-26T04:01:48.225Z,72.39
2024-02-26T04:04:50.503Z,72.31
2024-02-26T04:07:52.177Z,72.22
2024-02-26T04:10:53.772Z,72.22
2024-02-26T04:13:55.383Z,72.30
2024-02-26T04:16:57.017Z,72.48
2024-02-26T04:19:58.612Z,72.57
2024-02-26T04:23:00.152Z,72.55
2024-02-26T04:26:01.916Z,72.68
2024-02-26T04:29:03.989Z,72.69
2024-02-26T04:32:05.594Z,72.36
2024-02-26T04:35:07.752Z,72.40
2024-02-26T04:38:09.536Z,72.57
2024-02-26T04:41:11.263Z,72.70
2024-02-26T04:44:13.234Z,73.06
2024-02-26T04:47:14.766Z,73.33
2024-02-26T04:50:16.508Z,73.28
2024-02-26T04:53:18.192Z,73.42
2024-02-26T04:56:19.692Z,72.85
2024-02-26T04:59:21.540Z,73.16
2024-02-26T05:02:23.184Z,73.45
2024-02-26T05:05:24.802Z,73.02
2024-02-26T05:08:26.450Z,72.62
2024-02-26T05:11:28.101Z,72.63
2024-02-26T05:14:30.015Z,72.50
2024-02-26T05:17:31.644Z,72.81
2024-02-26T05:20:33.248Z,73.35
2024-02-26T05:23:34.798Z,73.23
2024-02-26T05:26:36.661Z,73.26
2024-02-26T05:29:38.546Z,73.60
2024-02-26T05:32:40.283Z,73.30
2024-02-26T05:35:41.920Z,73.33
2024-02-26T05:38:43.584Z,73.50
2024-02-26T05:41:45.377Z,74.02
2024-02-26T05:44:47.299Z,74.15
2024-02-26T05:47:49.070Z,73.98
2024-02-26T05:50:50.793Z,73.94
2024-02-26T05:53:52.420Z,73.89
2024-02-26T05:56:54.093Z,73.82
2024-02-26T05:59:55.723Z,73.92
2024-02-26T06:02:57.508Z,73.59
2024-02-26T06:05:59.399Z,73.91
2024-02-26T06:09:01.024Z,74.22
2024-02-26T06:12:02.867Z,74.40
2024-02-26T06:15:04.911Z,74.72
2024-02-26T06:18:06.675Z,74.96
2024-02-26T06:21:10.975Z,74.84
2024-02-26T06:24:12.677Z,75.22
2024-02-26T06:27:14.282Z,75.09
2024-02-26T06:30:16.016Z,75.53
2024-02-26T06:33:17.625Z,76.43
2024-02-26T06:36:19.306Z,76.63
2024-02-26T06:39:21.060Z,76.34
2024-02-26T06:42:22.795Z,76.81
2024-02-26T06:45:24.472Z,76.38
2024-02-26T06:48:26.239Z,74.80
2024-02-26T06:51:28.118Z,73.47
2024-02-26T06:54:32.518Z,72.91
2024-02-26T06:57:34.174Z,72.84
2024-02-26T07:00:36.627Z,72.79
2024-02-26T07:03:38.360Z,72.20
2024-02-26T07:06:40.204Z,72.35
2024-02-26T07:09:43.382Z,72.31
2024-02-26T07:12:45.297Z,72.45
2024-02-26T07:15:46.991Z,72.60
2024-02-26T07:18:48.623Z,72.66
2024-02-26T07:21:50.434Z,73.10
2024-02-26T07:24:52.128Z,73.52
2024-02-26T07:27:53.771Z,73.93
2024-02-26T07:30:55.791Z,74.03
2024-02-26T07:33:57.687Z,73.90
2024-02-26T07:36:59.351Z,74.56
2024-02-26T07:40:01.230Z,74.47
2024-02-26T07:43:02.926Z,75.06
2024-02-26T07:46:04.812Z,74.55
2024-02-26T07:49:06.505Z,74.01
2024-02-26T07:52:08.220Z,74.60
2024-02-26T07:55:09.859Z,74.83
2024-02-26T07:58:11.514Z,74.49
2024-02-26T08:01:16.478Z,73.94
2024-02-26T08:04:18.517Z,72.48
2024-02-26T08:07:20.223Z,71.20
2024-02-26T08:10:21.884Z,70.52
2024-02-26T08:13:23.442Z,69.72
2024-02-26T08:16:25.073Z,69.78
2024-02-26T08:19:27.906Z,68.13
2024-02-26T08:22:29.627Z,67.65
2024-02-26T08:25:31.275Z,67.95
2024-02-26T08:28:32.871Z,67.92
2024-02-26T08:31:34.588Z,67.51
2024-02-26T08:34:36.270Z,66.00
2024-02-26T08:37:45.789Z,63.60
2024-02-26T08:40:47.455Z,63.19
2024-02-26T08:43:49.071Z,63.19
2024-02-26T08:46:50.756Z,63.14
2024-02-26T08:49:52.403Z,63.42
2024-02-26T08:52:54.048Z,63.10
2024-02-26T08:55:55.727Z,62.96
2024-02-26T08:58:57.334Z,63.21
2024-02-26T09:01:59.169Z,61.91
2024-02-26T09:05:00.762Z,60.49
2024-02-26T09:08:02.377Z,60.95
2024-02-26T09:11:04.347Z,59.81
2024-02-26T09:14:05.963Z,58.82
2024-02-26T09:17:07.657Z,58.27
2024-02-26T09:20:09.448Z,57.79
2024-02-26T09:23:11.201Z,57.79
2024-02-26T09:26:12.783Z,58.44
2024-02-26T09:29:14.373Z,57.41
2024-02-26T09:32:16.056Z,57.02
2024-02-26T09:35:17.823Z,57.39
2024-02-26T09:38:19.556Z,58.32
2024-02-26T09:41:21.213Z,58.89
2024-02-26T09:44:23.511Z,59.44
2024-02-26T09:47:27.719Z,59.85
2024-02-26T09:50:29.491Z,60.69
2024-02-26T09:53:32.197Z,60.45
2024-02-26T09:56:33.909Z,59.25
2024-02-26T09:59:43.017Z,57.31
2024-02-26T10:02:47.020Z,55.46
2024-02-26T10:05:50.663Z,54.83
2024-02-26T10:08:52.456Z,55.83
2024-02-26T10:11:54.246Z,55.78
2024-02-26T10:14:55.966Z,56.30
2024-02-26T10:17:57.904Z,56.96
2024-02-26T10:21:03.504Z,55.46
2024-02-26T10:24:05.617Z,55.98
2024-02-26T10:27:07.669Z,54.67
2024-02-26T10:30:23.181Z,54.54
2024-02-26T10:33:26.050Z,51.90
2024-02-26T10:36:38.025Z,52.63
2024-02-26T10:39:48.380Z,51.00
2024-02-26T10:42:50.005Z,50.30
2024-02-26T10:45:51.601Z,49.85
2024-02-26T10:48:54.714Z,50.18
2024-02-26T10:51:57.591Z,49.91
2024-02-26T10:55:02.043Z,49.33
2024-02-26T10:58:04.176Z,48.31
2024-02-26T11:01:06.326Z,49.19
2024-02-26T11:04:10.076Z,48.34
2024-02-26T11:07:12.234Z,49.06
2024-02-26T11:10:13.891Z,49.04
2024-02-26T11:13:16.935Z,49.56
2024-02-26T11:16:19.723Z,48.65
2024-02-26T11:19:21.703Z,49.38
2024-02-26T11:22:25.526Z,49.54
2024-02-26T11:25:28.718Z,48.71
2024-02-26T11:28:30.644Z,47.72
2024-02-26T11:31:34.163Z,48.25
2024-02-26T11:34:37.993Z,47.00
2024-02-26T11:37:42.294Z,47.90
2024-02-26T11:40:45.416Z,48.78
2024-02-26T11:44:01.865Z,48.52
2024-02-26T11:47:14.444Z,49.69
2024-02-26T11:50:41.148Z,50.67
2024-02-26T11:53:49.043Z,51.38
2024-02-26T11:56:51.484Z,52.27
2024-02-26T11:59:53.884Z,52.75
2024-02-26T12:02:56.602Z,53.18
2024-02-26T12:05:58.397Z,52.94
2024-02-26T12:09:00.147Z,53.62
2024-02-26T12:12:06.534Z,53.63
2024-02-26T12:15:10.143Z,52.47
2024-02-26T12:18:19.268Z,52.89
2024-02-26T12:21:21.083Z,52.69
2024-02-26T12:24:23.000Z,52.17
2024-02-26T12:27:24.717Z,53.36
2024-02-26T12:30:27.131Z,53.72
2024-02-26T12:33:29.756Z,52.97
2024-02-26T12:36:31.975Z,53.26
2024-02-26T12:39:33.683Z,53.30
2024-02-26T12:42:36.329Z,53.09
2024-02-26T12:45:41.088Z,53.59
2024-02-26T12:48:45.889Z,52.58
2024-02-26T12:51:48.397Z,53.04
2024-02-26T12:54:50.054Z,53.04
2024-02-26T12:57:52.131Z,53.10
2024-02-26T13:00:54.397Z,53.16
2024-02-26T13:03:56.463Z,53.72
2024-02-26T13:06:58.413Z,53.65
2024-02-26T13:10:00.949Z,53.53
2024-02-26T13:13:03.582Z,53.72
2024-02-26T13:16:06.608Z,54.15
2024-02-26T13:19:11.913Z,54.38
2024-02-26T13:22:13.697Z,54.17
2024-02-26T13:25:21.502Z,54.06
2024-02-26T13:28:23.201Z,54.40
2024-02-26T13:31:24.828Z,54.76
2024-02-26T13:34:30.314Z,54.59
2024-02-26T13:37:31.925Z,54.67
2024-02-26T13:40:34.238Z,55.14
2024-02-26T13:43:35.846Z,54.80
2024-02-26T13:46:37.561Z,54.89
2024-02-26T13:49:39.278Z,55.10
2024-02-26T13:52:41.061Z,55.71
2024-02-26T13:55:42.878Z,54.94
2024-02-26T13:58:44.566Z,54.55
2024-02-26T14:01:46.213Z,54.43
2024-02-26T14:04:47.871Z,54.63
2024-02-26T14:07:52.289Z,55.32
2024-02-26T14:10:55.129Z,55.25
2024-02-26T14:13:56.851Z,55.96
2024-02-26T14:16:58.404Z,55.87
2024-02-26T14:20:00.386Z,56.03
2024-02-26T14:23:02.135Z,55.98
2024-02-26T14:26:03.920Z,56.33
2024-02-26T14:29:05.511Z,56.76
2024-02-26T14:32:07.166Z,57.18
2024-02-26T14:35:12.656Z,57.09
2024-02-26T14:38:16.710Z,57.51
2024-02-26T14:41:18.451Z,57.39
2024-02-26T14:44:20.154Z,57.24
2024-02-26T14:47:21.751Z,57.22
2024-02-26T14:50:23.414Z,57.67
2024-02-26T14:53:25.081Z,57.82
2024-02-26T14:56:26.852Z,57.82
2024-02-26T14:59:28.468Z,58.01
2024-02-26T15:02:30.135Z,58.33
2024-02-26T15:05:31.698Z,58.30
2024-02-26T15:08:33.361Z,58.50
2024-02-26T15:11:39.146Z,58.60
2024-02-26T15:14:40.777Z,58.86
2024-02-26T15:17:42.472Z,59.03
2024-02-26T15:20:44.169Z,59.18
2024-02-26T15:23:54.783Z,59.35
2024-02-26T15:27:03.930Z,59.45
2024-02-26T15:30:06.289Z,59.55
2024-02-26T15:33:08.125Z,59.69
2024-02-26T15:36:10.633Z,59.82
2024-02-26T15:39:12.289Z,60.03
2024-02-26T15:42:14.141Z,60.12
2024-02-26T15:45:16.640Z,60.25
2024-02-26T15:48:18.451Z,60.38
2024-02-26T15:51:23.946Z,60.61
2024-02-26T15:54:25.849Z,60.86
2024-02-26T15:57:27.498Z,61.12
2024-02-26T16:00:29.331Z,61.17
2024-02-26T16:03:31.102Z,61.29
2024-02-26T16:06:50.076Z,61.12
2024-02-26T16:09:53.530Z,61.36
2024-02-26T16:12:56.872Z,61.61
2024-02-26T16:16:11.017Z,61.80
2024-02-26T16:19:17.361Z,62.10
2024-02-26T16:22:20.597Z,62.46
2024-02-26T16:25:22.198Z,62.71
2024-02-26T16:28:23.944Z,63.17
2024-02-26T16:31:25.625Z,63.02
2024-02-26T16:34:27.403Z,63.49
2024-02-26T16:37:29.840Z,63.52
2024-02-26T16:40:31.510Z,63.61
2024-02-26T16:43:33.097Z,63.79
2024-02-26T16:46:34.964Z,63.76
2024-02-26T16:49:37.060Z,63.96
2024-02-26T16:52:38.801Z,64.01
2024-02-26T16:55:40.416Z,64.04
2024-02-26T16:58:42.084Z,64.18
2024-02-26T17:01:47.376Z,64.13
2024-02-26T17:04:49.091Z,64.05
2024-02-26T17:07:50.772Z,64.03
2024-02-26T17:10:52.540Z,64.35
2024-02-26T17:13:54.229Z,64.83
2024-02-26T17:16:55.935Z,64.75
2024-02-26T17:19:57.602Z,64.61
2024-02-26T17:22:59.472Z,64.85
2024-02-26T17:26:01.102Z,64.95
2024-02-26T17:29:03.863Z,64.92
2024-02-26T17:32:09.671Z,65.06
2024-02-26T17:35:12.985Z,65.15
2024-02-26T17:38:14.667Z,65.19
2024-02-26T17:41:16.443Z,65.30
2024-02-26T17:44:18.055Z,65.66
2024-02-26T17:47:19.665Z,65.69
2024-02-26T17:50:21.548Z,65.88
2024-02-26T17:53:23.386Z,66.13
2024-02-26T17:56:24.988Z,66.51
2024-02-26T17:59:26.667Z,66.75
2024-02-26T18:02:28.501Z,67.12
2024-02-26T18:05:30.632Z,67.10
2024-02-26T18:08:34.815Z,67.07
2024-02-26T18:11:36.974Z,67.23
2024-02-26T18:14:38.597Z,66.93
2024-02-26T18:17:40.496Z,66.99
2024-02-26T18:20:42.220Z,66.79
2024-02-26T18:23:44.085Z,66.80
2024-02-26T18:26:45.992Z,66.90
2024-02-26T18:29:47.704Z,66.86
2024-02-26T18:32:52.276Z,67.02
2024-02-26T18:35:54.551Z,67.00
2024-02-26T18:38:56.347Z,66.97
2024-02-26T18:41:58.051Z,67.06
2024-02-26T18:44:59.888Z,66.71
2024-02-26T18:48:01.899Z,66.52
2024-02-26T18:51:03.826Z,66.55
2024-02-26T18:54:06.384Z,66.51
2024-02-26T18:57:08.104Z,66.18
2024-02-26T19:00:09.952Z,66.11
2024-02-26T19:03:11.681Z,66.18
2024-02-26T19:06:13.472Z,66.38
2024-02-26T19:09:15.122Z,66.77
2024-02-26T19:12:16.885Z,66.97
2024-02-26T19:15:18.652Z,67.27
2024-02-26T19:18:20.438Z,67.68
2024-02-26T19:21:22.155Z,68.01
2024-02-26T19:24:23.944Z,68.22
2024-02-26T19:27:25.658Z,68.61
2024-02-26T19:30:27.405Z,68.87
2024-02-26T19:33:29.234Z,69.09
2024-02-26T19:36:31.102Z,69.14
2024-02-26T19:39:32.867Z,69.42
2024-02-26T19:42:34.619Z,69.43
2024-02-26T19:45:36.293Z,69.22
2024-02-26T19:48:38.179Z,69.18
2024-02-26T19:51:39.894Z,69.38
2024-02-26T19:54:42.216Z,69.54
2024-02-26T19:57:43.867Z,69.42
2024-02-26T20:00:45.673Z,69.51
2024-02-26T20:03:49.740Z,69.43
2024-02-26T20:06:52.134Z,69.93
2024-02-26T20:09:53.842Z,69.74
2024-02-26T20:12:55.603Z,70.15
2024-02-26T20:15:57.229Z,70.34
2024-02-26T20:18:58.983Z,70.06
2024-02-26T20:22:00.632Z,70.21
2024-02-26T20:25:02.327Z,70.17
2024-02-26T20:28:04.652Z,70.26
2024-02-26T20:31:06.658Z,70.14
2024-02-26T20:34:08.399Z,70.28
2024-02-26T20:37:10.183Z,70.64
2024-02-26T20:40:11.967Z,71.20
2024-02-26T20:43:13.631Z,71.34
2024-02-26T20:46:15.328Z,71.77
2024-02-26T20:49:17.144Z,71.97
2024-02-26T20:52:19.004Z,72.50
2024-02-26T20:55:20.643Z,72.61
2024-02-26T20:58:22.249Z,73.01
2024-02-26T21:01:23.940Z,72.74
2024-02-26T21:04:50.686Z,72.19
2024-02-26T21:07:52.474Z,72.16
2024-02-26T21:10:54.069Z,71.82
2024-02-26T21:13:55.848Z,71.92
2024-02-26T21:16:57.471Z,72.34
2024-02-26T21:20:00.370Z,72.60
2024-02-26T21:23:02.425Z,73.12
2024-02-26T21:26:04.547Z,73.25
2024-02-26T21:29:06.231Z,72.84
2024-02-26T21:32:07.810Z,72.97
2024-02-26T21:35:10.279Z,73.19
2024-02-26T21:38:11.979Z,73.19
2024-02-26T21:41:13.643Z,73.21
2024-02-26T21:44:15.573Z,72.83
2024-02-26T21:47:18.078Z,72.63
2024-02-26T21:50:19.824Z,71.91
2024-02-26T21:53:21.406Z,71.88
2024-02-26T21:56:23.130Z,72.19
2024-02-26T21:59:24.834Z,72.47
2024-02-26T22:02:26.517Z,72.50
2024-02-26T22:05:28.113Z,72.53
2024-02-26T22:08:29.796Z,72.84
2024-02-26T22:11:31.512Z,73.20
2024-02-26T22:14:33.235Z,73.97
2024-02-26T22:17:35.315Z,73.86
2024-02-26T22:20:36.996Z,73.40
2024-02-26T22:23:38.535Z,73.44
2024-02-26T22:26:40.174Z,72.93
2024-02-26T22:29:41.833Z,73.18
2024-02-26T22:32:43.426Z,73.29
2024-02-26T22:35:45.074Z,72.52
2024-02-26T22:38:47.055Z,72.92
2024-02-26T22:41:48.963Z,72.52
2024-02-26T22:44:50.581Z,72.77
2024-02-26T22:47:52.245Z,73.21
2024-02-26T22:50:54.090Z,73.32
2024-02-26T22:53:55.827Z,73.37
2024-02-26T22:56:57.550Z,73.49
2024-02-26T22:59:59.210Z,73.62
2024-02-26T23:03:01.720Z,73.74
2024-02-26T23:06:03.705Z,73.93
2024-02-26T23:09:05.558Z,73.81
2024-02-26T23:12:07.633Z,73.80
2024-02-26T23:15:09.908Z,73.88
2024-02-26T23:18:11.588Z,74.09
2024-02-26T23:21:13.382Z,74.08
2024-02-26T23:24:15.098Z,74.11
2024-02-26T23:27:16.927Z,74.68
2024-02-26T23:30:18.844Z,74.67
2024-02-26T23:33:20.647Z,74.30
2024-02-26T23:36:22.387Z,74.23
2024-02-26T23:39:24.028Z,73.99
2024-02-26T23:42:25.688Z,73.91
2024-02-26T23:45:27.345Z,73.70
2024-02-26T23:48:29.134Z,73.71
2024-02-26T23:51:30.891Z,73.63
2024-02-26T23:54:32.615Z,73.79
2024-02-26T23:57:34.446Z,73.78
